Time;durP1;ratioP1;P1;durP2;ratioP2;P2;SDS_P1;SDS_P2;PMS_P1;PMS_P2;Temp;Humidity;BMP_temperature;BMP_pressure;BME280_temperature;BME280_humidity;BME280_pressure;Samples;Min_cycle;Max_cycle;Signal;HPM_P1;HPM_P2
2022/01/10 00:00:52;;;;;;;4.10;1.45;;;5.10;99.90;;;;;;6277423;22;20386;-89
2022/01/10 00:03:22;;;;;;;5.60;1.33;;;5.00;99.90;;;;;;6225126;22;20020;-90
2022/01/10 00:05:50;;;;;;;6.70;1.33;;;5.00;99.90;;;;;;6225223;22;20020;-90
2022/01/10 00:08:17;;;;;;;7.43;2.55;;;5.00;99.90;;;;;;6249580;22;20032;-90
2022/01/10 00:10:44;;;;;;;5.03;1.58;;;5.00;99.90;;;;;;6230723;22;20043;-90
2022/01/10 00:13:11;;;;;;;2.20;0.93;;;5.00;99.90;;;;;;6225252;22;20023;-89
2022/01/10 00:15:39;;;;;;;6.00;1.92;;;5.00;99.90;;;;;;6277376;22;20015;-89
2022/01/10 00:18:06;;;;;;;3.60;1.50;;;5.00;99.90;;;;;;6249972;22;20051;-90
2022/01/10 00:20:33;;;;;;;5.32;2.28;;;5.00;99.90;;;;;;6250136;22;20505;-90
2022/01/10 00:23:00;;;;;;;5.75;1.55;;;5.00;99.90;;;;;;6277045;22;20342;-90
2022/01/10 00:25:27;;;;;;;6.95;1.55;;;5.00;99.90;;;;;;6276942;22;20414;-90
2022/01/10 00:27:54;;;;;;;4.70;1.05;;;5.00;99.90;;;;;;6249966;22;20443;-89
2022/01/10 00:30:23;;;;;;;3.25;1.08;;;4.90;99.90;;;;;;6249720;22;20374;-89
2022/01/10 00:32:51;;;;;;;4.97;1.30;;;4.90;99.90;;;;;;6249798;22;20320;-89
2022/01/10 00:35:19;;;;;;;2.92;1.42;;;4.90;99.90;;;;;;6250152;22;20008;-89
2022/01/10 00:37:46;;;;;;;3.28;1.52;;;4.90;99.90;;;;;;6276637;22;20053;-89
2022/01/10 00:40:16;;;;;;;5.20;1.88;;;4.90;99.90;;;;;;6224765;22;20019;-89
2022/01/10 00:42:44;;;;;;;4.30;1.65;;;4.90;99.90;;;;;;6276845;22;20012;-89
2022/01/10 00:45:20;;;;;;;5.80;1.60;;;4.90;99.90;;;;;;6250056;22;20094;-89
2022/01/10 00:47:47;;;;;;;6.82;1.25;;;4.90;99.90;;;;;;6250087;22;20016;-90
2022/01/10 00:50:16;;;;;;;7.57;1.63;;;4.90;99.90;;;;;;6224712;22;20016;-89
2022/01/10 00:52:43;;;;;;;3.92;2.13;;;4.90;99.90;;;;;;6250278;22;20033;-89
2022/01/10 00:55:12;;;;;;;4.85;1.73;;;4.90;99.90;;;;;;6280313;22;20012;-89
2022/01/10 00:57:40;;;;;;;5.88;1.30;;;4.90;99.90;;;;;;6280010;22;20015;-89
2022/01/10 01:00:09;;;;;;;6.25;2.15;;;4.90;99.90;;;;;;6263751;22;20390;-89
2022/01/10 01:02:36;;;;;;;4.63;1.40;;;4.90;99.90;;;;;;6280102;22;20023;-89
2022/01/10 01:05:06;;;;;;;6.28;1.63;;;4.80;99.90;;;;;;6228536;22;20098;-90
2022/01/10 01:07:35;;;;;;;4.60;1.30;;;4.80;99.90;;;;;;6255213;22;20091;-89
2022/01/10 01:12:58;;;;;;;7.15;2.17;;;4.80;99.90;;;;;;6280485;22;20073;-88
2022/01/10 01:15:30;;;;;;;4.80;1.42;;;4.80;99.90;;;;;;6228094;22;20027;-88
2022/01/10 01:26:03;;;;;;;5.82;1.50;;;4.80;99.90;;;;;;6280263;22;20019;-88
2022/01/10 01:28:31;;;;;;;3.65;1.58;;;4.80;99.90;;;;;;6252926;22;20024;-89
2022/01/10 01:30:59;;;;;;;5.53;1.40;;;4.80;99.90;;;;;;6227549;22;20393;-89
2022/01/10 01:33:26;;;;;;;3.90;1.05;;;4.80;99.90;;;;;;6253885;22;20020;-89
2022/01/10 01:35:53;;;;;;;4.90;1.70;;;4.80;99.90;;;;;;6253500;22;20505;-89
2022/01/10 01:38:22;;;;;;;9.15;1.02;;;4.70;99.90;;;;;;6227924;22;20022;-89
2022/01/10 01:40:57;;;;;;;7.60;1.90;;;4.80;99.90;;;;;;6280191;22;20478;-90
2022/01/10 01:43:24;;;;;;;5.03;1.95;;;4.70;99.90;;;;;;6253902;22;20022;-88
2022/01/10 01:45:51;;;;;;;8.13;1.98;;;4.70;99.90;;;;;;6252814;22;20098;-90
2022/01/10 01:48:18;;;;;;;9.70;2.08;;;4.70;99.90;;;;;;6279613;22;20065;-89
2022/01/10 01:50:45;;;;;;;9.32;1.83;;;4.70;99.90;;;;;;6227831;22;20020;-89
2022/01/10 01:53:13;;;;;;;3.47;1.45;;;4.70;99.90;;;;;;6253379;22;20016;-90
2022/01/10 01:55:40;;;;;;;3.30;1.50;;;4.70;99.90;;;;;;6228057;22;20073;-88
2022/01/10 01:58:07;;;;;;;7.07;1.45;;;4.60;99.90;;;;;;6252471;22;20024;-90
2022/01/10 02:00:34;;;;;;;7.63;1.65;;;4.70;99.90;;;;;;6253878;22;20140;-89
2022/01/10 02:03:02;;;;;;;4.03;1.55;;;4.70;99.90;;;;;;6228288;22;20019;-89
2022/01/10 02:05:31;;;;;;;4.30;1.42;;;4.70;99.90;;;;;;6251494;22;20469;-89
2022/01/10 02:07:58;;;;;;;4.68;1.50;;;4.70;99.90;;;;;;6226426;22;20019;-89
2022/01/10 02:10:26;;;;;;;4.55;2.53;;;4.70;99.90;;;;;;6251288;22;20102;-89
2022/01/10 02:12:54;;;;;;;7.25;2.20;;;4.70;99.90;;;;;;6226867;22;20024;-89
2022/01/10 02:15:35;;;;;;;3.40;1.88;;;4.60;99.90;;;;;;6251729;22;20115;-88
2022/01/10 02:18:08;;;;;;;7.95;1.88;;;4.60;99.90;;;;;;6251439;22;20023;-89
2022/01/10 02:20:35;;;;;;;5.22;1.45;;;4.60;99.90;;;;;;6252751;22;20024;-89
2022/01/10 02:23:03;;;;;;;6.25;1.90;;;4.60;99.90;;;;;;6226062;22;20447;-88
2022/01/10 02:25:48;;;;;;;6.85;2.25;;;4.60;99.90;;;;;;6252514;22;20331;-88
2022/01/10 02:28:21;;;;;;;13.10;2.23;;;4.60;99.90;;;;;;6226881;22;20091;-89
2022/01/10 02:30:55;;;;;;;6.50;3.38;;;4.60;99.90;;;;;;6251100;22;20397;-89
2022/01/10 02:33:27;;;;;;;5.78;1.50;;;4.60;99.90;;;;;;6226282;22;20026;-89
2022/01/10 02:36:06;;;;;;;6.72;2.47;;;4.60;99.90;;;;;;6226235;22;20030;-88
2022/01/10 02:38:34;;;;;;;9.45;2.25;;;4.60;99.90;;;;;;6251667;22;20025;-89
2022/01/10 02:41:02;;;;;;;10.88;2.00;;;4.50;99.90;;;;;;6226250;22;20016;-89
2022/01/10 02:43:29;;;;;;;5.40;1.85;;;4.50;99.90;;;;;;6251358;22;20022;-90
2022/01/10 02:45:56;;;;;;;7.60;1.98;;;4.50;99.90;;;;;;6251229;22;20237;-90
2022/01/10 02:48:24;;;;;;;4.78;2.45;;;4.50;99.90;;;;;;6225965;22;20417;-89
2022/01/10 02:50:51;;;;;;;4.32;2.00;;;4.50;99.90;;;;;;6225782;22;20085;-90
2022/01/10 02:53:18;;;;;;;4.07;1.92;;;4.50;99.90;;;;;;6250828;22;20026;-90
2022/01/10 02:55:45;;;;;;;6.93;2.10;;;4.50;99.90;;;;;;6225717;22;20020;-89
2022/01/10 02:58:12;;;;;;;10.25;2.00;;;4.50;99.90;;;;;;6250797;22;20027;-89
2022/01/10 03:00:40;;;;;;;5.70;1.95;;;4.50;99.90;;;;;;6250813;22;20019;-89
2022/01/10 03:03:07;;;;;;;4.93;2.28;;;4.50;99.90;;;;;;6251326;22;20020;-90
2022/01/10 03:05:35;;;;;;;6.50;2.03;;;4.40;99.90;;;;;;6251174;22;20084;-90
2022/01/10 03:08:03;;;;;;;6.35;2.28;;;4.40;99.90;;;;;;6250368;22;20016;-89
2022/01/10 03:10:32;;;;;;;7.70;2.17;;;4.40;99.90;;;;;;6251261;22;20420;-89
2022/01/10 03:13:00;;;;;;;7.32;2.55;;;4.40;99.90;;;;;;6251305;22;20069;-90
2022/01/10 03:15:28;;;;;;;7.55;1.90;;;4.40;99.90;;;;;;6225462;22;20402;-89
2022/01/10 03:17:56;;;;;;;6.10;2.15;;;4.40;99.90;;;;;;6225673;22;20031;-89
2022/01/10 03:20:24;;;;;;;6.50;2.28;;;4.40;99.90;;;;;;6250374;22;20070;-89
2022/01/10 03:22:52;;;;;;;7.53;1.98;;;4.40;99.90;;;;;;6250485;22;20044;-89
2022/01/10 03:25:20;;;;;;;7.68;2.15;;;4.40;99.90;;;;;;6250658;22;20342;-90
2022/01/10 03:27:49;;;;;;;6.93;1.77;;;4.40;99.90;;;;;;6250462;22;20103;-88
2022/01/10 03:30:16;;;;;;;8.43;2.25;;;4.40;99.90;;;;;;6250463;22;20020;-89
2022/01/10 03:32:46;;;;;;;9.13;2.03;;;4.30;99.90;;;;;;6250375;22;20394;-88
2022/01/10 03:35:24;;;;;;;5.03;2.10;;;4.40;99.90;;;;;;6250275;22;20106;-88
2022/01/10 03:37:51;;;;;;;6.18;2.63;;;4.30;99.90;;;;;;6250076;22;20449;-89
2022/01/10 03:40:19;;;;;;;7.03;2.55;;;4.30;99.90;;;;;;6277329;22;20091;-89
2022/01/10 03:42:47;;;;;;;2.70;1.83;;;4.30;99.90;;;;;;6225490;22;20027;-89
2022/01/10 03:45:14;;;;;;;7.15;2.00;;;4.30;99.90;;;;;;6250474;22;20046;-89
2022/01/10 03:47:43;;;;;;;5.30;3.13;;;4.30;99.90;;;;;;6250207;22;20397;-91
2022/01/10 03:50:11;;;;;;;7.82;2.53;;;4.30;99.90;;;;;;6250635;22;20024;-89
2022/01/10 03:52:38;;;;;;;4.22;1.83;;;4.30;99.90;;;;;;6250182;22;20027;-89
2022/01/10 03:55:05;;;;;;;10.68;2.63;;;4.30;99.90;;;;;;6224804;22;20020;-89
2022/01/10 03:57:32;;;;;;;3.95;1.90;;;4.30;99.90;;;;;;6224726;22;20024;-89
2022/01/10 03:59:59;;;;;;;7.55;2.08;;;4.30;99.90;;;;;;6250189;22;20343;-89
2022/01/10 04:02:28;;;;;;;4.10;2.13;;;4.30;99.90;;;;;;6224962;22;20015;-89
2022/01/10 04:04:56;;;;;;;6.30;2.30;;;4.30;99.90;;;;;;6249935;22;20016;-90
2022/01/10 04:07:23;;;;;;;6.43;2.28;;;4.20;99.90;;;;;;6249749;22;20102;-89
2022/01/10 04:09:49;;;;;;;7.57;2.47;;;4.20;99.90;;;;;;6225145;22;20020;-89
2022/01/10 04:12:16;;;;;;;4.97;2.10;;;4.20;99.90;;;;;;6224679;22;20750;-89
2022/01/10 04:14:43;;;;;;;8.20;3.15;;;4.20;99.90;;;;;;6224995;22;20054;-89
2022/01/10 04:17:18;;;;;;;4.65;2.17;;;4.20;99.90;;;;;;6225139;22;20019;-92
2022/01/10 04:19:49;;;;;;;3.47;2.25;;;4.20;99.90;;;;;;6250055;22;20019;-91
2022/01/10 04:22:19;;;;;;;10.93;3.00;;;4.20;99.90;;;;;;6226064;22;20494;-90
2022/01/10 04:24:46;;;;;;;9.68;2.60;;;4.20;99.90;;;;;;6224926;22;20020;-90
2022/01/10 04:27:13;;;;;;;4.80;2.40;;;4.20;99.90;;;;;;6224925;22;20427;-91
2022/01/10 04:29:40;;;;;;;5.75;3.45;;;4.20;99.90;;;;;;6250034;22;20024;-90
2022/01/10 04:32:11;;;;;;;5.20;2.28;;;4.20;99.90;;;;;;6249824;22;20028;-90
2022/01/10 04:34:39;;;;;;;8.63;3.25;;;4.20;99.90;;;;;;6250478;22;20024;-90
2022/01/10 04:37:07;;;;;;;6.25;2.92;;;4.20;99.90;;;;;;6250228;22;20066;-90
2022/01/10 04:39:35;;;;;;;8.18;2.85;;;4.20;99.90;;;;;;6250224;22;20383;-90
2022/01/10 04:42:02;;;;;;;9.40;3.20;;;4.20;99.90;;;;;;6249832;22;20020;-90
2022/01/10 04:44:30;;;;;;;5.78;2.92;;;4.10;99.90;;;;;;6250453;22;20022;-90
2022/01/10 04:46:57;;;;;;;7.22;2.67;;;4.10;99.90;;;;;;6224922;22;20098;-90
2022/01/10 04:49:26;;;;;;;6.05;2.70;;;4.10;99.90;;;;;;6249969;22;20094;-90
2022/01/10 04:51:54;;;;;;;8.50;3.45;;;4.10;99.90;;;;;;6250062;22;20031;-90
2022/01/10 04:54:21;;;;;;;11.80;3.45;;;4.10;99.90;;;;;;6224633;22;20051;-91
2022/01/10 04:56:48;;;;;;;7.03;3.08;;;4.10;99.90;;;;;;6224631;22;20038;-90
2022/01/10 04:59:19;;;;;;;5.45;2.97;;;4.10;99.90;;;;;;6249897;22;20016;-91
2022/01/10 05:01:46;;;;;;;9.90;2.80;;;4.10;99.90;;;;;;6224747;22;20016;-90
2022/01/10 05:04:13;;;;;;;8.68;3.13;;;4.10;99.90;;;;;;6224608;22;20069;-90
2022/01/10 05:06:42;;;;;;;7.13;3.13;;;4.10;99.90;;;;;;6224686;22;20019;-90
2022/01/10 05:09:10;;;;;;;6.20;2.85;;;4.00;99.90;;;;;;6224523;22;20098;-89
2022/01/10 05:11:48;;;;;;;10.50;3.55;;;4.00;99.90;;;;;;6227796;22;20407;-90
2022/01/10 05:14:16;;;;;;;7.85;3.00;;;4.00;99.90;;;;;;6225014;22;20027;-89
2022/01/10 05:16:44;;;;;;;8.65;3.17;;;4.00;99.90;;;;;;6250097;22;20070;-90
2022/01/10 05:19:11;;;;;;;7.72;3.47;;;4.00;99.90;;;;;;6224595;22;20020;-90
2022/01/10 05:21:38;;;;;;;9.60;3.40;;;4.00;99.90;;;;;;6225214;22;20015;-90
2022/01/10 05:24:07;;;;;;;10.93;3.00;;;4.00;99.90;;;;;;6250057;22;20020;-90
2022/01/10 05:26:35;;;;;;;7.15;3.17;;;4.00;99.90;;;;;;6250502;22;20020;-90
2022/01/10 05:29:03;;;;;;;10.68;3.60;;;4.00;99.90;;;;;;6249755;22;20019;-90
2022/01/10 05:31:34;;;;;;;8.40;2.97;;;4.00;99.90;;;;;;6249824;22;20027;-90
2022/01/10 05:34:14;;;;;;;9.45;3.17;;;4.00;99.90;;;;;;6249651;22;20322;-89
2022/01/10 05:36:41;;;;;;;9.38;3.00;;;4.00;99.90;;;;;;6277043;22;20016;-90
2022/01/10 05:39:08;;;;;;;10.45;3.60;;;4.00;99.90;;;;;;6249614;22;20058;-90
2022/01/10 05:41:36;;;;;;;6.70;3.22;;;3.90;99.90;;;;;;6226113;22;20103;-90
2022/01/10 05:44:04;;;;;;;8.50;3.42;;;4.00;99.90;;;;;;6252399;22;20095;-90
2022/01/10 05:46:37;;;;;;;10.48;3.97;;;3.90;99.90;;;;;;6227080;22;20095;-90
2022/01/10 05:49:07;;;;;;;9.38;3.38;;;3.90;99.90;;;;;;6226535;22;20015;-90
2022/01/10 05:51:36;;;;;;;8.82;3.05;;;3.90;99.90;;;;;;6226828;22;20020;-90
2022/01/10 05:54:23;;;;;;;6.78;3.33;;;3.90;99.90;;;;;;6256007;22;20058;-90
2022/01/10 05:56:52;;;;;;;7.45;2.88;;;3.90;99.90;;;;;;6226220;22;20040;-90
2022/01/10 05:59:21;;;;;;;9.02;3.53;;;3.90;99.90;;;;;;6251703;22;20020;-90
2022/01/10 06:01:49;;;;;;;8.35;3.83;;;3.90;99.90;;;;;;6226400;22;20024;-90
2022/01/10 06:04:21;;;;;;;7.00;3.85;;;3.90;99.90;;;;;;6226844;22;20015;-90
2022/01/10 06:06:50;;;;;;;7.10;3.72;;;3.90;99.90;;;;;;6251529;22;20043;-90
2022/01/10 06:09:17;;;;;;;11.40;3.67;;;3.90;99.90;;;;;;6251209;22;20019;-91
2022/01/10 06:11:46;;;;;;;8.05;3.85;;;3.90;99.90;;;;;;6226466;22;20061;-91
2022/01/10 06:14:14;;;;;;;8.30;3.80;;;3.90;99.90;;;;;;6251213;22;20043;-91
2022/01/10 06:16:42;;;;;;;8.35;3.90;;;3.90;99.90;;;;;;6251745;22;20027;-91
2022/01/10 06:19:10;;;;;;;4.90;3.42;;;3.90;99.90;;;;;;6226546;22;20390;-91
2022/01/10 06:21:38;;;;;;;12.40;3.40;;;3.90;99.90;;;;;;6251441;22;20020;-91
2022/01/10 06:24:06;;;;;;;11.32;3.92;;;3.80;99.90;;;;;;6251613;22;20099;-91
2022/01/10 06:26:33;;;;;;;10.65;4.10;;;3.80;99.90;;;;;;6226854;22;20028;-90
2022/01/10 06:29:00;;;;;;;9.37;3.63;;;3.80;99.90;;;;;;6226275;22;20023;-91
2022/01/10 06:31:27;;;;;;;11.15;3.80;;;3.80;99.90;;;;;;6251504;22;20435;-91
2022/01/10 06:34:03;;;;;;;7.70;4.53;;;3.80;99.90;;;;;;6228367;22;20046;-91
2022/01/10 06:36:33;;;;;;;7.18;3.60;;;3.80;99.90;;;;;;6252602;22;20016;-91
2022/01/10 06:39:02;;;;;;;7.18;3.30;;;3.80;99.90;;;;;;6226386;22;20016;-91
2022/01/10 06:41:29;;;;;;;10.48;4.32;;;3.80;99.90;;;;;;6251162;22;20027;-91
2022/01/10 06:43:56;;;;;;;7.60;3.50;;;3.80;99.90;;;;;;6251148;22;20115;-90
2022/01/10 06:46:23;;;;;;;8.40;3.63;;;3.80;99.90;;;;;;6225996;22;20027;-90
2022/01/10 06:48:50;;;;;;;8.27;3.58;;;3.80;99.90;;;;;;6250753;22;20330;-90
2022/01/10 06:51:20;;;;;;;9.10;3.53;;;3.80;99.90;;;;;;6251494;22;20347;-91
2022/01/10 06:53:52;;;;;;;11.23;4.20;;;3.80;99.90;;;;;;6251664;22;20033;-91
2022/01/10 06:56:22;;;;;;;10.98;4.88;;;3.80;99.90;;;;;;6226590;22;20070;-91
2022/01/10 06:58:49;;;;;;;9.68;3.80;;;3.80;99.90;;;;;;6225528;22;20050;-90
2022/01/10 07:01:25;;;;;;;9.57;4.05;;;3.70;99.90;;;;;;6227145;22;20038;-90
2022/01/10 07:03:54;;;;;;;16.92;4.07;;;3.80;99.90;;;;;;6225531;22;20043;-90
2022/01/10 07:06:23;;;;;;;10.48;3.50;;;3.70;99.90;;;;;;6226045;22;20015;-90
2022/01/10 07:08:51;;;;;;;7.20;3.90;;;3.70;99.90;;;;;;6250144;22;20040;-90
2022/01/10 07:11:26;;;;;;;10.30;4.05;;;3.70;99.90;;;;;;6251412;22;20332;-90
2022/01/10 07:13:53;;;;;;;11.40;4.25;;;3.70;99.90;;;;;;6225572;22;20077;-90
2022/01/10 07:16:21;;;;;;;13.52;3.97;;;3.70;99.90;;;;;;6225565;22;20020;-90
2022/01/10 07:18:55;;;;;;;10.17;3.90;;;3.70;99.90;;;;;;6227076;22;20103;-91
2022/01/10 07:21:27;;;;;;;8.30;3.93;;;3.70;99.90;;;;;;6226705;22;20347;-91
2022/01/10 07:23:55;;;;;;;10.40;3.97;;;3.70;99.90;;;;;;6252410;22;20028;-91
2022/01/10 07:26:22;;;;;;;11.57;3.78;;;3.70;99.90;;;;;;6286283;22;20012;-90
2022/01/10 07:28:52;;;;;;;8.90;3.10;;;3.70;99.90;;;;;;6277217;22;20087;-92
2022/01/10 07:31:19;;;;;;;11.17;5.47;;;3.70;99.90;;;;;;6250393;22;20019;-91
2022/01/10 07:33:47;;;;;;;7.65;3.05;;;3.70;99.90;;;;;;6250831;22;20039;-90
2022/01/10 07:36:14;;;;;;;8.87;3.70;;;3.70;99.90;;;;;;6225300;22;20042;-89
2022/01/10 07:38:41;;;;;;;9.00;4.10;;;3.60;99.90;;;;;;6277242;22;20454;-90
2022/01/10 07:41:08;;;;;;;12.65;4.70;;;3.60;99.90;;;;;;6250449;22;20073;-91
2022/01/10 07:43:35;;;;;;;8.30;4.00;;;3.60;99.90;;;;;;6234057;22;20073;-90
2022/01/10 07:46:04;;;;;;;11.05;3.92;;;3.60;99.90;;;;;;6224859;22;20102;-90
2022/01/10 07:48:35;;;;;;;10.98;3.95;;;3.60;99.90;;;;;;6224855;22;20023;-90
2022/01/10 07:51:03;;;;;;;5.57;3.72;;;3.60;99.90;;;;;;6282624;22;20015;-90
2022/01/10 07:53:30;;;;;;;7.53;3.42;;;3.60;99.90;;;;;;6248119;22;20473;-91
2022/01/10 07:56:00;;;;;;;9.55;3.83;;;3.60;99.90;;;;;;6225641;22;20022;-90
2022/01/10 07:58:27;;;;;;;11.85;4.30;;;3.60;99.90;;;;;;6250055;22;20039;-91
2022/01/10 08:00:54;;;;;;;6.53;3.28;;;3.60;99.90;;;;;;6250896;22;20019;-91
2022/01/10 08:03:21;;;;;;;8.85;4.55;;;3.60;99.90;;;;;;6225106;22;20020;-91
2022/01/10 08:05:49;;;;;;;10.95;3.95;;;3.60;99.90;;;;;;6251274;22;20034;-90
2022/01/10 08:08:16;;;;;;;9.50;3.40;;;3.60;99.90;;;;;;6225361;22;20390;-90
2022/01/10 08:10:43;;;;;;;9.02;3.45;;;3.60;99.90;;;;;;6227948;22;20407;-90
2022/01/10 08:13:10;;;;;;;7.15;3.60;;;3.60;99.90;;;;;;6277157;22;20020;-90
2022/01/10 08:15:37;;;;;;;12.45;3.53;;;3.60;99.90;;;;;;6249964;22;20023;-91
2022/01/10 08:18:06;;;;;;;5.95;3.60;;;3.60;99.90;;;;;;6224878;22;20343;-90
2022/01/10 08:20:33;;;;;;;7.30;3.28;;;3.60;99.90;;;;;;6250355;22;20012;-91
2022/01/10 08:23:00;;;;;;;8.90;3.35;;;3.60;99.90;;;;;;6249846;22;20023;-90
2022/01/10 08:25:27;;;;;;;11.63;3.78;;;3.60;99.90;;;;;;6225398;22;20016;-90
2022/01/10 08:27:54;;;;;;;10.13;4.43;;;3.60;99.90;;;;;;6250485;22;20016;-91
2022/01/10 08:30:21;;;;;;;5.72;3.25;;;3.60;99.90;;;;;;6249764;22;20077;-91
2022/01/10 08:32:50;;;;;;;7.50;3.13;;;3.60;99.90;;;;;;6224740;22;20023;-91
2022/01/10 08:35:18;;;;;;;9.52;4.22;;;3.60;99.90;;;;;;6249962;22;20098;-90
2022/01/10 08:37:46;;;;;;;7.82;4.10;;;3.60;99.90;;;;;;6250119;22;20015;-91
2022/01/10 08:40:13;;;;;;;7.07;3.45;;;3.60;99.90;;;;;;6249663;22;20012;-91
2022/01/10 08:42:41;;;;;;;9.25;3.33;;;3.60;99.90;;;;;;6224813;22;20449;-89
2022/01/10 08:45:17;;;;;;;10.50;3.33;;;3.60;99.90;;;;;;6251228;22;20019;-91
2022/01/10 08:47:59;;;;;;;5.78;2.90;;;3.60;99.90;;;;;;6253269;22;20087;-91
2022/01/10 08:50:33;;;;;;;7.63;3.35;;;3.60;99.90;;;;;;6251328;22;20019;-90
2022/01/10 08:53:06;;;;;;;9.13;3.33;;;3.60;99.90;;;;;;6248771;22;20019;-88
2022/01/10 08:55:33;;;;;;;6.30;2.60;;;3.60;99.90;;;;;;6250616;22;20078;-91
2022/01/10 08:58:01;;;;;;;9.10;3.08;;;3.70;99.90;;;;;;6261057;22;20268;-89
2022/01/10 09:00:31;;;;;;;6.50;3.38;;;3.70;99.90;;;;;;6225057;22;20099;-89
2022/01/10 09:03:01;;;;;;;7.57;3.33;;;3.70;99.90;;;;;;6276727;22;20652;-88
2022/01/10 09:05:29;;;;;;;4.60;2.88;;;3.70;99.90;;;;;;6280892;22;20004;-91
2022/01/10 09:08:01;;;;;;;9.55;4.47;;;3.70;99.90;;;;;;6223873;22;20019;-91
2022/01/10 09:10:28;;;;;;;5.82;3.55;;;3.70;99.90;;;;;;6249866;22;20023;-90
2022/01/10 09:13:01;;;;;;;7.00;3.47;;;3.70;99.90;;;;;;6225267;22;20474;-91
2022/01/10 09:15:32;;;;;;;12.25;4.25;;;3.70;99.90;;;;;;6251412;22;20020;-90
2022/01/10 09:18:02;;;;;;;7.95;3.42;;;3.70;99.90;;;;;;6227361;22;20027;-89
2022/01/10 09:20:29;;;;;;;5.53;2.83;;;3.70;99.90;;;;;;6251671;22;20023;-89
2022/01/10 09:22:56;;;;;;;8.75;3.67;;;3.80;99.90;;;;;;6251757;22;20112;-91
2022/01/10 09:25:26;;;;;;;8.90;3.05;;;3.70;99.90;;;;;;6233760;22;20019;-92
2022/01/10 09:27:53;;;;;;;11.32;3.92;;;3.80;99.90;;;;;;6278898;22;20015;-93
2022/01/10 09:30:25;;;;;;;9.80;3.60;;;3.80;99.90;;;;;;6227567;22;20114;-89
2022/01/10 09:32:56;;;;;;;8.43;3.42;;;3.80;99.90;;;;;;6278820;22;20023;-92
2022/01/10 09:35:32;;;;;;;10.93;4.15;;;3.90;99.90;;;;;;6254666;22;20099;-91
2022/01/10 09:37:59;;;;;;;12.30;3.78;;;3.90;99.90;;;;;;6226964;22;20047;-90
2022/01/10 09:40:26;;;;;;;5.38;3.28;;;3.90;99.90;;;;;;6278512;22;20019;-89
2022/01/10 09:42:53;;;;;;;11.18;3.88;;;3.90;99.90;;;;;;6251452;22;20016;-90
2022/01/10 09:45:20;;;;;;;8.02;4.03;;;3.90;99.90;;;;;;6278273;22;20070;-89
2022/01/10 09:47:47;;;;;;;11.13;4.50;;;4.00;99.90;;;;;;6250562;22;20016;-89
2022/01/10 09:50:16;;;;;;;11.30;5.05;;;4.00;99.90;;;;;;6277968;22;20015;-90
2022/01/10 09:52:47;;;;;;;17.17;5.07;;;4.10;99.90;;;;;;6225978;22;20162;-89
2022/01/10 09:55:15;;;;;;;11.93;5.13;;;4.10;99.90;;;;;;6251793;22;20489;-90
2022/01/10 09:57:42;;;;;;;14.70;5.07;;;4.20;99.90;;;;;;6250738;22;20020;-91
2022/01/10 10:00:10;;;;;;;21.20;5.68;;;4.20;99.90;;;;;;6250897;22;20020;-91
2022/01/10 10:02:40;;;;;;;14.75;5.30;;;4.30;99.90;;;;;;6278466;22;20023;-92
2022/01/10 10:05:10;;;;;;;13.73;5.18;;;4.30;99.90;;;;;;6226463;22;20427;-91
2022/01/10 10:07:38;;;;;;;7.55;4.72;;;4.20;99.90;;;;;;6225732;22;20030;-89
2022/01/10 10:10:11;;;;;;;15.38;5.78;;;4.20;99.90;;;;;;6251654;22;20043;-91
2022/01/10 10:12:40;;;;;;;16.45;5.07;;;4.20;99.90;;;;;;6260893;22;20020;-90
2022/01/10 10:15:12;;;;;;;18.30;4.80;;;4.20;99.90;;;;;;6250680;22;20016;-90
2022/01/10 10:17:40;;;;;;;14.25;5.53;;;4.30;99.90;;;;;;6225689;22;20047;-92
2022/01/10 10:20:09;;;;;;;12.13;4.93;;;4.30;99.90;;;;;;6252383;22;20022;-89
2022/01/10 10:22:56;;;;;;;9.43;5.45;;;4.30;99.90;;;;;;6251134;22;20435;-90
2022/01/10 10:25:23;;;;;;;20.73;5.82;;;4.30;99.90;;;;;;6278532;22;20450;-92
2022/01/10 10:27:50;;;;;;;14.05;5.75;;;4.40;99.90;;;;;;6225659;22;20363;-91
2022/01/10 10:30:26;;;;;;;17.77;5.60;;;4.40;99.90;;;;;;6251290;22;20015;-93
2022/01/10 10:33:15;;;;;;;14.00;5.88;;;4.40;99.90;;;;;;6255631;22;20054;-91
2022/01/10 10:35:44;;;;;;;11.15;5.38;;;4.50;99.90;;;;;;6226655;22;20424;-91
2022/01/10 10:38:13;;;;;;;19.85;6.45;;;4.40;99.90;;;;;;6256352;22;20016;-91
2022/01/10 10:40:42;;;;;;;15.02;6.80;;;4.50;99.90;;;;;;6230513;22;20372;-92
2022/01/10 10:43:09;;;;;;;15.00;6.15;;;4.50;99.90;;;;;;6226255;22;20020;-91
2022/01/10 10:45:38;;;;;;;13.55;5.97;;;4.50;99.90;;;;;;6226690;22;20015;-92
2022/01/10 10:48:07;;;;;;;23.67;7.05;;;4.60;99.90;;;;;;6251668;22;20314;-91
2022/01/10 10:50:43;;;;;;;15.88;7.00;;;4.50;99.90;;;;;;6227957;22;20019;-92
2022/01/10 10:53:13;;;;;;;16.20;7.60;;;4.60;99.90;;;;;;6229911;22;20026;-91
2022/01/10 10:55:45;;;;;;;20.92;6.45;;;4.60;99.90;;;;;;6227105;22;20431;-89
2022/01/10 10:58:13;;;;;;;13.73;7.30;;;4.60;99.90;;;;;;6250841;22;20022;-93
2022/01/10 11:00:42;;;;;;;18.50;7.45;;;4.60;99.90;;;;;;6225923;22;20042;-90
2022/01/10 11:03:12;;;;;;;13.60;7.35;;;4.60;99.90;;;;;;6225613;22;20051;-91
2022/01/10 11:05:40;;;;;;;16.38;7.47;;;4.70;99.90;;;;;;6227007;22;20020;-91
2022/01/10 11:08:07;;;;;;;21.23;9.60;;;4.70;99.90;;;;;;6225796;22;20046;-90
2022/01/10 11:10:34;;;;;;;22.55;8.52;;;4.80;99.90;;;;;;6251061;22;20016;-91
2022/01/10 11:13:02;;;;;;;23.25;8.35;;;4.90;99.90;;;;;;6247862;22;20039;-90
2022/01/10 11:15:30;;;;;;;27.63;10.55;;;4.90;99.90;;;;;;6272067;22;20007;-91
2022/01/10 11:18:02;;;;;;;20.23;8.15;;;4.90;99.90;;;;;;6250713;22;20007;-91
2022/01/10 11:20:40;;;;;;;20.55;8.70;;;5.10;99.90;;;;;;6225921;22;20470;-91
2022/01/10 11:23:28;;;;;;;28.83;9.40;;;5.10;99.90;;;;;;6250662;22;20110;-91
2022/01/10 11:25:57;;;;;;;28.40;9.10;;;5.30;99.90;;;;;;6251787;22;20046;-90
2022/01/10 11:28:26;;;;;;;26.08;8.75;;;5.40;99.90;;;;;;6226313;22;20380;-90
2022/01/10 11:31:04;;;;;;;27.85;9.30;;;5.40;99.90;;;;;;6225557;22;20020;-91
2022/01/10 11:33:36;;;;;;;22.63;9.25;;;5.50;99.90;;;;;;6225383;22;20020;-90
2022/01/10 11:36:07;;;;;;;21.50;9.18;;;5.60;99.90;;;;;;6252725;22;20020;-91
2022/01/10 11:38:50;;;;;;;29.10;8.35;;;5.70;99.90;;;;;;6250615;22;20027;-91
2022/01/10 11:41:29;;;;;;;31.33;10.60;;;5.70;99.90;;;;;;6250700;22;20012;-90
2022/01/10 11:44:10;;;;;;;30.73;9.27;;;5.80;99.90;;;;;;6250679;22;20016;-91
2022/01/10 11:46:48;;;;;;;26.13;9.68;;;5.90;99.90;;;;;;6225449;22;20026;-91
2022/01/10 11:49:21;;;;;;;24.38;8.27;;;6.00;99.90;;;;;;6225351;22;20347;-91
2022/01/10 11:51:51;;;;;;;27.08;9.45;;;6.00;99.90;;;;;;6224618;22;20390;-91
2022/01/10 11:54:26;;;;;;;27.13;9.00;;;6.00;99.90;;;;;;6225722;22;20119;-91
2022/01/10 11:56:57;;;;;;;27.33;10.32;;;5.90;99.90;;;;;;6277793;22;20016;-90
2022/01/10 11:59:35;;;;;;;23.60;9.80;;;5.80;99.90;;;;;;6250537;22;20031;-90
2022/01/10 12:02:04;;;;;;;31.88;10.52;;;5.90;99.90;;;;;;6225182;22;20050;-91
2022/01/10 12:04:32;;;;;;;33.45;11.43;;;5.90;99.90;;;;;;6249560;22;20043;-92
2022/01/10 12:07:01;;;;;;;32.88;10.63;;;5.90;99.90;;;;;;6224612;22;20015;-90
2022/01/10 12:09:28;;;;;;;29.83;11.07;;;5.90;99.90;;;;;;6225657;22;20089;-91
2022/01/10 12:11:58;;;;;;;25.02;8.70;;;5.90;99.90;;;;;;6250500;22;20051;-92
2022/01/10 12:14:26;;;;;;;17.88;10.55;;;5.90;99.90;;;;;;6225247;22;20047;-91
2022/01/10 12:16:54;;;;;;;25.85;9.90;;;5.90;99.90;;;;;;6278853;22;20049;-90
2022/01/10 12:19:22;;;;;;;33.38;10.98;;;5.90;99.90;;;;;;6250106;22;20375;-90
2022/01/10 12:21:49;;;;;;;26.00;11.68;;;5.90;99.90;;;;;;6225282;22;20047;-92
2022/01/10 12:24:17;;;;;;;32.53;10.88;;;5.90;99.90;;;;;;6250288;22;20020;-92
2022/01/10 12:26:45;;;;;;;36.40;12.95;;;5.90;99.90;;;;;;6225231;22;20338;-92
2022/01/10 12:29:13;;;;;;;28.52;11.82;;;5.90;99.90;;;;;;6249887;22;20023;-92
2022/01/10 12:31:43;;;;;;;27.70;12.57;;;6.00;99.90;;;;;;6250453;22;20377;-93
2022/01/10 12:34:12;;;;;;;22.48;11.30;;;6.10;99.90;;;;;;6225887;22;20359;-92
2022/01/10 12:36:40;;;;;;;33.10;14.23;;;6.10;99.90;;;;;;6224911;22;20437;-91
2022/01/10 12:39:11;;;;;;;22.25;12.15;;;6.10;99.90;;;;;;6250112;22;20030;-93
2022/01/10 12:41:38;;;;;;;27.95;11.25;;;6.10;99.90;;;;;;6224853;22;20435;-91
2022/01/10 12:44:05;;;;;;;26.42;12.68;;;6.10;99.90;;;;;;6225727;22;20011;-93
2022/01/10 12:46:33;;;;;;;23.95;11.57;;;6.20;99.90;;;;;;6250608;22;20097;-93
2022/01/10 12:49:06;;;;;;;28.40;12.98;;;6.20;99.90;;;;;;6223199;22;20027;-90
2022/01/10 12:51:45;;;;;;;29.38;12.90;;;6.30;99.90;;;;;;6250220;22;20028;-93
2022/01/10 12:54:17;;;;;;;25.42;12.60;;;6.30;99.90;;;;;;6250196;22;20043;-90
2022/01/10 12:56:44;;;;;;;33.80;13.50;;;6.40;99.90;;;;;;6277467;22;20015;-92
2022/01/10 12:59:14;;;;;;;27.40;11.65;;;6.50;99.90;;;;;;6249702;22;20019;-93
2022/01/10 13:01:42;;;;;;;34.53;12.88;;;6.50;99.90;;;;;;6249749;22;20022;-93
2022/01/10 13:04:10;;;;;;;33.22;13.60;;;6.50;99.90;;;;;;6249717;22;20012;-90
2022/01/10 13:06:45;;;;;;;27.77;12.10;;;6.60;99.90;;;;;;6249554;22;20022;-90
2022/01/10 13:09:13;;;;;;;24.63;12.48;;;6.70;99.90;;;;;;6249653;22;20062;-90
2022/01/10 13:12:00;;;;;;;;;;;;;;;;;;;;;
2022/01/10 13:14:36;;;;;;;28.98;14.18;;;6.60;99.90;;;;;;6250640;22;20024;-94